Terminal Aerodrome Forecast
Issued by NWS

Home | Current Version | Previous Version | Text Only | Print | Product List | Glossary On
Versions: 1 2 3 4 5 6 7 8 9 10 11 12 13 14 15 16 17 18 19 20 21 22 23 24 25
605
FTUS41 KBUF 161518 AAB
TAFIAG
TAF AMD
KIAG 161518Z 1615/1712 20006KT P6SM BKN015
     FM161800 24008KT P6SM BKN015
     FM162000 25006KT P6SM BKN020
     FM170200 23010KT P6SM BKN020=

USA.gov is the U.S. government's official web portal to all federal, state and local government web resources and services.